createdAt,value
2017-02-09T00:00:01.541Z,2.33
2017-02-09T00:00:23.253Z,2.34
2017-02-09T00:00:44.951Z,2.35
2017-02-09T00:01:06.657Z,2.34
2017-02-09T00:01:28.357Z,2.29
2017-02-09T00:01:54.842Z,2.28
2017-02-09T00:02:16.542Z,2.30
2017-02-09T00:02:43.020Z,2.22
2017-02-09T00:03:04.716Z,2.17
2017-02-09T00:03:26.408Z,2.13
2017-02-09T00:03:57.664Z,2.17
2017-02-09T00:04:19.372Z,2.18
2017-02-09T00:04:41.162Z,2.17
2017-02-09T00:05:07.636Z,2.18
2017-02-09T00:05:29.347Z,2.20
2017-02-09T00:05:51.143Z,2.20
2017-02-09T00:06:27.182Z,2.33
2017-02-09T00:06:54.238Z,2.26
2017-02-09T00:07:16.048Z,2.33
2017-02-09T00:07:37.756Z,2.28
2017-02-09T00:08:02.096Z,2.33
2017-02-09T00:08:33.362Z,2.33
2017-02-09T00:08:55.154Z,2.35
2017-02-09T00:09:16.864Z,2.33
2017-02-09T00:09:43.350Z,2.27
2017-02-09T00:10:05.047Z,2.22
2017-02-09T00:10:26.765Z,2.29
2017-02-09T00:10:58.024Z,2.30
2017-02-09T00:11:19.722Z,2.25
2017-02-09T00:11:41.432Z,2.23
2017-02-09T00:12:03.176Z,2.22
2017-02-09T00:12:24.871Z,2.23
2017-02-09T00:12:46.600Z,2.26
2017-02-09T00:13:08.397Z,2.23
2017-02-09T00:13:30.102Z,2.19
2017-02-09T00:13:56.586Z,2.16
2017-02-09T00:14:18.372Z,2.12
2017-02-09T00:14:40.071Z,2.07
2017-02-09T00:15:06.547Z,2.01
2017-02-09T00:15:28.283Z,2.02
2017-02-09T00:15:49.954Z,2.05
2017-02-09T00:16:21.203Z,2.04
2017-02-09T00:16:42.908Z,2.03
2017-02-09T00:17:14.175Z,2.03
2017-02-09T00:17:35.871Z,2.09
2017-02-09T00:18:07.126Z,2.05
2017-02-09T00:18:31.744Z,2.07
2017-02-09T00:18:53.365Z,2.08
2017-02-09T00:19:15.059Z,2.11
2017-02-09T00:19:36.767Z,2.12
2017-02-09T00:19:58.481Z,2.11
2017-02-09T00:20:20.173Z,2.08
2017-02-09T00:20:51.418Z,2.08
2017-02-09T00:21:13.144Z,2.04
2017-02-09T00:21:34.832Z,2.04
2017-02-09T00:22:01.305Z,2.08
2017-02-09T00:22:23.102Z,2.10
2017-02-09T00:22:44.809Z,2.07
2017-02-09T00:23:11.291Z,2.11
2017-02-09T00:23:32.989Z,2.07
2017-02-09T00:23:54.704Z,2.08
2017-02-09T00:24:16.510Z,2.07
2017-02-09T00:24:38.209Z,2.11
2017-02-09T00:24:59.907Z,2.13
2017-02-09T00:25:31.166Z,2.20
2017-02-09T00:25:52.890Z,2.17
2017-02-09T00:26:19.387Z,2.20
2017-02-09T00:26:41.081Z,2.25
2017-02-09T00:27:02.888Z,2.25
2017-02-09T00:27:29.366Z,2.12
2017-02-09T00:27:51.053Z,2.11
2017-02-09T00:28:12.784Z,2.12
2017-02-09T00:28:39.350Z,2.07
2017-02-09T00:29:01.048Z,2.04
2017-02-09T00:29:22.760Z,2.09
2017-02-09T00:30:34.815Z,2.01
2017-02-09T00:30:56.604Z,2.04
2017-02-09T00:31:23.084Z,2.08
2017-02-09T00:31:44.817Z,2.07
2017-02-09T00:32:11.289Z,2.06
2017-02-09T00:32:33.081Z,2.09
2017-02-09T00:32:59.660Z,2.07
2017-02-09T00:33:21.479Z,2.02
2017-02-09T00:33:43.275Z,1.94
2017-02-09T00:34:09.771Z,1.89
2017-02-09T00:34:31.597Z,1.90
2017-02-09T00:34:58.078Z,1.94
2017-02-09T00:35:19.784Z,1.97
2017-02-09T00:35:46.265Z,1.96
2017-02-09T00:36:08.067Z,2.00
2017-02-09T00:36:29.775Z,2.02
2017-02-09T00:36:56.248Z,2.08
2017-02-09T00:37:17.948Z,2.03
2017-02-09T00:37:49.203Z,1.97
2017-02-09T00:38:10.913Z,1.91
2017-02-09T00:38:32.722Z,1.93
2017-02-09T00:38:54.527Z,1.90
2017-02-09T00:39:16.232Z,1.89
2017-02-09T00:39:42.811Z,1.90
2017-02-09T00:40:04.605Z,1.92
2017-02-09T00:40:26.334Z,1.86
2017-02-09T00:40:52.910Z,1.88
2017-02-09T00:41:14.605Z,1.93
2017-02-09T00:41:36.398Z,1.93
2017-02-09T00:42:02.974Z,1.98
2017-02-09T00:42:24.677Z,1.94
2017-02-09T00:42:51.155Z,1.94
2017-02-09T00:43:12.973Z,2.04
2017-02-09T00:43:34.811Z,2.12
2017-02-09T00:44:01.370Z,2.07
2017-02-09T00:44:25.883Z,2.04
2017-02-09T00:44:47.717Z,2.01
2017-02-09T00:45:09.509Z,2.02
2017-02-09T00:45:36.074Z,1.90
2017-02-09T00:45:57.771Z,1.90
2017-02-09T00:46:24.336Z,1.95
2017-02-09T00:46:46.135Z,1.92
2017-02-09T00:47:07.914Z,1.89
2017-02-09T00:47:29.702Z,1.88
2017-02-09T00:47:56.269Z,1.87
2017-02-09T00:48:18.070Z,2.00
2017-02-09T00:48:39.873Z,1.96
2017-02-09T00:49:47.277Z,1.96
2017-02-09T00:50:09.060Z,1.92
2017-02-09T00:50:40.324Z,1.91
2017-02-09T00:51:02.106Z,1.96
2017-02-09T00:51:23.806Z,1.99
2017-02-09T00:51:50.377Z,1.90
2017-02-09T00:52:12.079Z,1.91
2017-02-09T00:52:33.890Z,1.96
2017-02-09T00:52:55.597Z,2.06
2017-02-09T00:53:17.392Z,2.07
2017-02-09T00:53:39.191Z,2.05
2017-02-09T00:54:05.666Z,2.10
2017-02-09T00:54:27.366Z,2.10
2017-02-09T00:54:53.949Z,2.07
2017-02-09T00:55:15.742Z,2.07
2017-02-09T00:55:51.776Z,2.07
2017-02-09T00:56:18.906Z,2.04
2017-02-09T00:56:40.697Z,2.00
2017-02-09T00:57:02.403Z,2.02
2017-02-09T00:57:28.883Z,1.95
2017-02-09T00:57:50.672Z,1.90
2017-02-09T00:58:17.154Z,1.90
2017-02-09T00:58:38.947Z,1.90
2017-02-09T00:59:00.739Z,1.98
2017-02-09T00:59:31.997Z,1.89
2017-02-09T00:59:53.805Z,1.92
2017-02-09T01:00:15.631Z,1.88
2017-02-09T01:00:37.412Z,1.93
2017-02-09T01:00:59.193Z,2.06
2017-02-09T01:01:25.794Z,2.08
2017-02-09T01:01:47.590Z,2.04
2017-02-09T01:02:09.384Z,2.00
2017-02-09T01:02:45.417Z,1.91
2017-02-09T01:03:07.688Z,1.95
2017-02-09T01:03:29.392Z,2.05
2017-02-09T01:03:55.968Z,2.06
2017-02-09T01:04:17.769Z,2.00
2017-02-09T01:05:25.050Z,2.02
2017-02-09T01:05:46.853Z,1.97
2017-02-09T01:06:08.562Z,1.95
2017-02-09T01:06:30.272Z,1.98
2017-02-09T01:06:52.110Z,1.98
2017-02-09T01:07:13.915Z,1.94
2017-02-09T01:07:35.704Z,1.91
2017-02-09T01:07:57.506Z,1.90
2017-02-09T01:08:19.314Z,1.92
2017-02-09T01:08:45.788Z,1.95
2017-02-09T01:09:07.495Z,2.00
2017-02-09T01:09:29.292Z,2.00
2017-02-09T01:09:51.095Z,1.97
2017-02-09T01:10:12.878Z,1.90
2017-02-09T01:10:34.587Z,1.88
2017-02-09T01:11:01.081Z,1.88
2017-02-09T01:11:22.783Z,1.82
2017-02-09T01:11:44.611Z,1.85
2017-02-09T01:12:06.402Z,1.87
2017-02-09T01:12:28.216Z,1.94
2017-02-09T01:12:50.015Z,1.97
2017-02-09T01:13:21.274Z,1.93
2017-02-09T01:13:42.987Z,1.91
2017-02-09T01:14:09.466Z,1.90
2017-02-09T01:14:31.167Z,1.90
2017-02-09T01:14:52.880Z,1.94
2017-02-09T01:15:14.678Z,1.97
2017-02-09T01:15:36.536Z,1.92
2017-02-09T01:15:58.329Z,1.89
2017-02-09T01:16:20.036Z,1.94
2017-02-09T01:16:41.828Z,1.96
2017-02-09T01:17:03.647Z,1.97
2017-02-09T01:17:25.450Z,2.04
2017-02-09T01:17:47.258Z,2.01
2017-02-09T01:18:13.810Z,2.07
2017-02-09T01:18:40.296Z,2.07
2017-02-09T01:19:01.982Z,1.98
2017-02-09T01:19:23.680Z,1.93
2017-02-09T01:19:45.487Z,1.85
2017-02-09T01:20:07.275Z,1.84
2017-02-09T01:20:29.088Z,1.86
2017-02-09T01:20:50.787Z,1.88
2017-02-09T01:21:12.495Z,1.88
2017-02-09T01:21:34.201Z,1.82
2017-02-09T01:22:00.671Z,1.74
2017-02-09T01:22:22.504Z,1.68
2017-02-09T01:22:44.286Z,1.68
2017-02-09T01:23:10.778Z,1.76
2017-02-09T01:23:32.595Z,1.77
2017-02-09T01:23:54.300Z,1.82
2017-02-09T01:24:20.879Z,1.81
2017-02-09T01:24:42.582Z,1.82
2017-02-09T01:25:13.838Z,1.84
2017-02-09T01:25:35.649Z,1.92
2017-02-09T01:26:02.222Z,1.90
2017-02-09T01:26:24.006Z,1.81
2017-02-09T01:26:45.805Z,1.76
2017-02-09T01:27:07.524Z,1.77
2017-02-09T01:27:29.345Z,1.76
2017-02-09T01:28:00.675Z,1.77
2017-02-09T01:28:22.460Z,1.75
2017-02-09T01:29:34.518Z,1.83
2017-02-09T01:29:56.238Z,1.84
2017-02-09T01:30:17.940Z,1.83
2017-02-09T01:30:39.757Z,1.81
2017-02-09T01:31:01.541Z,1.82
2017-02-09T01:31:23.331Z,1.77
2017-02-09T01:31:45.043Z,1.69
2017-02-09T01:32:06.817Z,1.74
2017-02-09T01:32:38.065Z,1.76
2017-02-09T01:32:59.860Z,1.75
2017-02-09T01:33:31.111Z,1.83
2017-02-09T01:33:52.909Z,1.77
2017-02-09T01:34:19.482Z,1.72
2017-02-09T01:34:41.174Z,1.67
2017-02-09T01:35:02.968Z,1.69
2017-02-09T01:35:29.531Z,1.68
2017-02-09T01:35:56.045Z,1.68
2017-02-09T01:36:17.848Z,1.67
2017-02-09T01:36:39.651Z,1.74
2017-02-09T01:37:01.353Z,1.74
2017-02-09T01:37:23.063Z,1.74
2017-02-09T01:37:44.795Z,1.81
2017-02-09T01:38:52.175Z,1.84
2017-02-09T01:39:13.901Z,1.83
2017-02-09T01:39:40.475Z,1.80
2017-02-09T01:40:02.274Z,1.83
2017-02-09T01:40:28.756Z,1.77
2017-02-09T01:40:50.448Z,1.72
2017-02-09T01:41:53.052Z,1.64
2017-02-09T01:42:14.843Z,1.53
2017-02-09T01:42:36.618Z,1.55
2017-02-09T01:43:03.179Z,1.62
2017-02-09T01:43:24.871Z,1.63
2017-02-09T01:43:56.136Z,1.62
2017-02-09T01:44:17.928Z,1.63
2017-02-09T01:44:49.173Z,1.64
2017-02-09T01:45:10.870Z,1.64
2017-02-09T01:45:42.236Z,1.56
2017-02-09T01:46:03.971Z,1.58
2017-02-09T01:46:35.232Z,1.59
2017-02-09T01:46:57.037Z,1.65
2017-02-09T01:47:33.063Z,1.68
2017-02-09T01:48:00.204Z,1.66
2017-02-09T01:48:22.024Z,1.70
2017-02-09T01:48:48.523Z,1.70
2017-02-09T01:49:10.311Z,1.72
2017-02-09T01:49:32.114Z,1.72
2017-02-09T01:49:53.838Z,1.71
2017-02-09T01:50:15.623Z,1.77
2017-02-09T01:50:42.101Z,1.77
2017-02-09T01:51:03.795Z,1.75
2017-02-09T01:51:25.492Z,1.73
2017-02-09T01:51:47.203Z,1.64
2017-02-09T01:52:08.912Z,1.64
2017-02-09T01:52:44.946Z,1.64
2017-02-09T01:53:12.005Z,1.63
2017-02-09T01:53:33.807Z,1.60
2017-02-09T01:53:55.608Z,1.58
2017-02-09T01:54:22.190Z,1.53
2017-02-09T01:54:43.900Z,1.54
2017-02-09T01:55:10.388Z,1.55
2017-02-09T01:55:32.127Z,1.67
2017-02-09T01:55:58.592Z,1.69
2017-02-09T01:56:20.283Z,1.72
2017-02-09T01:56:42.071Z,1.66
2017-02-09T01:57:13.324Z,1.64
2017-02-09T01:57:35.072Z,1.62
2017-02-09T01:57:56.769Z,1.62
2017-02-09T01:58:23.333Z,1.63
2017-02-09T01:58:45.036Z,1.65
2017-02-09T01:59:11.519Z,1.64
2017-02-09T01:59:33.227Z,1.66
2017-02-09T01:59:59.793Z,1.60
2017-02-09T02:00:21.495Z,1.62
2017-02-09T02:00:57.522Z,1.59
2017-02-09T02:01:24.561Z,1.55
2017-02-09T02:01:46.363Z,1.60
2017-02-09T02:02:12.857Z,1.61
2017-02-09T02:02:34.567Z,1.58
2017-02-09T02:03:01.035Z,1.58
2017-02-09T02:03:22.735Z,1.60
2017-02-09T02:03:44.449Z,1.60
2017-02-09T02:04:06.162Z,1.62
2017-02-09T02:04:27.859Z,1.70
2017-02-09T02:04:49.656Z,1.71
2017-02-09T02:05:11.371Z,1.67
2017-02-09T02:05:33.079Z,1.61
2017-02-09T02:05:59.550Z,1.62
2017-02-09T02:06:21.284Z,1.63
2017-02-09T02:06:42.982Z,1.62
2017-02-09T02:07:19.022Z,1.60
2017-02-09T02:07:46.181Z,1.61
2017-02-09T02:08:07.881Z,1.60
2017-02-09T02:08:39.138Z,1.56
2017-02-09T02:09:00.882Z,1.59
2017-02-09T02:09:27.366Z,1.58
2017-02-09T02:09:49.074Z,1.57
2017-02-09T02:10:10.787Z,1.55
2017-02-09T02:10:32.498Z,1.58
2017-02-09T02:10:54.294Z,1.55
2017-02-09T02:11:20.799Z,1.55
2017-02-09T02:11:42.495Z,1.49
2017-02-09T02:12:04.209Z,1.45
2017-02-09T02:12:40.246Z,1.49
2017-02-09T02:13:02.534Z,1.50
2017-02-09T02:13:24.224Z,1.51
2017-02-09T02:13:50.701Z,1.41
2017-02-09T02:14:12.397Z,1.43
2017-02-09T02:14:34.184Z,1.41
2017-02-09T02:14:55.891Z,1.39
2017-02-09T02:15:17.597Z,1.40
2017-02-09T02:15:39.300Z,1.44
2017-02-09T02:16:05.880Z,1.50
2017-02-09T02:16:27.578Z,1.54
2017-02-09T02:17:03.600Z,1.58
2017-02-09T02:17:30.641Z,1.58
2017-02-09T02:17:52.339Z,1.54
2017-02-09T02:18:18.828Z,1.57
2017-02-09T02:18:40.584Z,1.59
2017-02-09T02:19:47.965Z,1.62
2017-02-09T02:20:09.677Z,1.59
2017-02-09T02:20:36.161Z,1.55
2017-02-09T02:20:57.878Z,1.47
2017-02-09T02:22:00.384Z,1.46
2017-02-09T02:22:22.169Z,1.47
2017-02-09T02:23:34.231Z,1.53
2017-02-09T02:23:55.939Z,1.55
2017-02-09T02:24:17.652Z,1.61
2017-02-09T02:24:44.131Z,1.53
2017-02-09T02:25:05.835Z,1.48
2017-02-09T02:25:32.400Z,1.50
2017-02-09T02:25:54.162Z,1.48
2017-02-09T02:26:20.629Z,1.41
2017-02-09T02:26:42.344Z,1.46
2017-02-09T02:27:04.050Z,1.45
2017-02-09T02:27:30.530Z,1.50
2017-02-09T02:27:52.316Z,1.49
2017-02-09T02:28:23.580Z,1.51
2017-02-09T02:28:45.274Z,1.49
2017-02-09T02:29:16.523Z,1.46
2017-02-09T02:29:38.310Z,1.45
2017-02-09T02:30:00.016Z,1.38
2017-02-09T02:30:21.736Z,1.44
2017-02-09T02:30:43.426Z,1.46
2017-02-09T02:31:10.015Z,1.45
2017-02-09T02:31:31.744Z,1.48
2017-02-09T02:31:53.455Z,1.41
2017-02-09T02:32:15.166Z,1.44
2017-02-09T02:32:36.978Z,1.46
2017-02-09T02:32:58.684Z,1.49
2017-02-09T02:33:20.548Z,1.52
2017-02-09T02:34:13.655Z,1.48
2017-02-09T02:34:35.456Z,1.54
2017-02-09T02:35:47.512Z,1.52
2017-02-09T02:36:09.226Z,1.52
2017-02-09T02:36:30.951Z,1.55
2017-02-09T02:37:02.199Z,1.55
2017-02-09T02:37:23.998Z,1.61
2017-02-09T02:37:45.771Z,1.56
2017-02-09T02:38:12.255Z,1.45
2017-02-09T02:38:33.957Z,1.41
2017-02-09T02:38:55.743Z,1.41
2017-02-09T02:39:58.358Z,1.50
2017-02-09T02:40:20.091Z,1.54
2017-02-09T02:41:22.692Z,1.48
2017-02-09T02:41:44.412Z,1.50
2017-02-09T02:42:51.695Z,1.46
2017-02-09T02:43:13.507Z,1.53
2017-02-09T02:43:40.016Z,1.59
2017-02-09T02:44:01.782Z,1.54
2017-02-09T02:44:28.394Z,1.50
2017-02-09T02:44:50.098Z,1.48
2017-02-09T02:45:16.588Z,1.43
2017-02-09T02:45:38.416Z,1.36
2017-02-09T02:46:50.471Z,1.41
2017-02-09T02:47:12.193Z,1.42
2017-02-09T02:47:33.894Z,1.39
2017-02-09T02:48:05.148Z,1.39
2017-02-09T02:48:26.857Z,1.36
2017-02-09T02:49:02.892Z,1.35
2017-02-09T02:49:31.051Z,1.37
2017-02-09T02:49:52.772Z,1.35
2017-02-09T02:50:19.267Z,1.37
2017-02-09T02:50:40.977Z,1.38
2017-02-09T02:51:17.014Z,1.43
2017-02-09T02:51:44.057Z,1.37
2017-02-09T02:52:05.766Z,1.36
2017-02-09T02:52:32.246Z,1.33
2017-02-09T02:52:54.062Z,1.31
2017-02-09T02:53:30.092Z,1.25
2017-02-09T02:53:57.159Z,1.21
2017-02-09T02:54:18.991Z,1.22
2017-02-09T02:54:50.231Z,1.24
2017-02-09T02:55:12.033Z,1.28
2017-02-09T02:55:43.286Z,1.25
2017-02-09T02:56:05.071Z,1.27
2017-02-09T02:56:26.782Z,1.28
2017-02-09T02:56:48.489Z,1.25
2017-02-09T02:57:10.275Z,1.24
2017-02-09T02:57:36.761Z,1.24
2017-02-09T02:57:58.563Z,1.23
2017-02-09T02:58:20.268Z,1.25
2017-02-09T02:58:46.739Z,1.20
2017-02-09T02:59:08.439Z,1.24
2017-02-09T02:59:39.687Z,1.25
2017-02-09T03:00:01.470Z,1.27
2017-02-09T03:00:27.957Z,1.20
2017-02-09T03:00:49.677Z,1.24
2017-02-09T03:01:11.473Z,1.29
2017-02-09T03:01:37.976Z,1.36
2017-02-09T03:01:59.669Z,1.40
2017-02-09T03:02:26.242Z,1.41
2017-02-09T03:02:48.074Z,1.39
2017-02-09T03:03:09.758Z,1.32
2017-02-09T03:03:31.460Z,1.33
2017-02-09T03:03:53.173Z,1.37
2017-02-09T03:04:14.880Z,1.40
2017-02-09T03:04:41.351Z,1.36
2017-02-09T03:05:03.039Z,1.27
2017-02-09T03:05:24.778Z,1.27
2017-02-09T03:05:46.486Z,1.32
2017-02-09T03:06:08.192Z,1.25
2017-02-09T03:06:29.893Z,1.20
2017-02-09T03:06:51.594Z,1.19
2017-02-09T03:07:13.291Z,1.19
2017-02-09T03:07:35.018Z,1.21
2017-02-09T03:08:01.494Z,1.17
2017-02-09T03:08:23.185Z,1.18
2017-02-09T03:08:49.672Z,1.13
2017-02-09T03:09:11.364Z,1.18
2017-02-09T03:09:33.080Z,1.20
2017-02-09T03:09:59.553Z,1.21
2017-02-09T03:10:21.248Z,1.28
2017-02-09T03:10:42.957Z,1.36
2017-02-09T03:11:04.665Z,1.40
2017-02-09T03:11:26.368Z,1.40
2017-02-09T03:11:48.063Z,1.35
2017-02-09T03:12:09.775Z,1.43
2017-02-09T03:12:31.470Z,1.38
2017-02-09T03:12:53.168Z,1.35
2017-02-09T03:13:19.645Z,1.32
2017-02-09T03:13:41.347Z,1.28
2017-02-09T03:14:03.062Z,1.27
2017-02-09T03:14:24.768Z,1.19
2017-02-09T03:14:46.460Z,1.19
2017-02-09T03:15:08.171Z,1.17
2017-02-09T03:15:29.929Z,1.20
2017-02-09T03:15:51.644Z,1.18
2017-02-09T03:16:13.339Z,1.17
2017-02-09T03:16:35.039Z,1.18
2017-02-09T03:16:56.736Z,1.16
2017-02-09T03:17:18.438Z,1.20
2017-02-09T03:17:40.142Z,1.27
2017-02-09T03:18:01.846Z,1.29
2017-02-09T03:18:23.547Z,1.34
2017-02-09T03:18:45.254Z,1.46
2017-02-09T03:19:11.725Z,1.40
2017-02-09T03:19:33.445Z,1.40
2017-02-09T03:19:55.140Z,1.38
2017-02-09T03:20:26.386Z,1.35
2017-02-09T03:20:48.089Z,1.32
2017-02-09T03:21:19.348Z,1.34
2017-02-09T03:21:41.057Z,1.29
2017-02-09T03:22:17.081Z,1.25
2017-02-09T03:22:39.367Z,1.27
2017-02-09T03:23:01.069Z,1.24
2017-02-09T03:23:22.774Z,1.25
2017-02-09T03:23:44.476Z,1.24
2017-02-09T03:24:06.178Z,1.23
2017-02-09T03:24:27.877Z,1.21
2017-02-09T03:24:49.612Z,1.22
2017-02-09T03:25:11.325Z,1.25
2017-02-09T03:25:33.032Z,1.28
2017-02-09T03:25:54.729Z,1.32
2017-02-09T03:26:16.438Z,1.30
2017-02-09T03:26:47.683Z,1.27
2017-02-09T03:27:09.379Z,1.26
2017-02-09T03:27:31.079Z,1.28
2017-02-09T03:27:52.782Z,1.27
2017-02-09T03:28:14.478Z,1.25
2017-02-09T03:28:36.184Z,1.23
2017-02-09T03:28:57.881Z,1.28
2017-02-09T03:29:19.578Z,1.37
2017-02-09T03:29:41.268Z,1.33
2017-02-09T03:30:07.738Z,1.28
2017-02-09T03:30:29.474Z,1.29
2017-02-09T03:30:51.177Z,1.28
2017-02-09T03:31:12.887Z,1.32
2017-02-09T03:31:34.579Z,1.35
2017-02-09T03:31:56.280Z,1.26
2017-02-09T03:32:17.977Z,1.25
2017-02-09T03:32:39.680Z,1.24
2017-02-09T03:33:10.927Z,1.21
2017-02-09T03:33:32.632Z,1.28
2017-02-09T03:33:59.113Z,1.32
2017-02-09T03:34:20.808Z,1.31
2017-02-09T03:34:42.514Z,1.28
2017-02-09T03:35:04.214Z,1.25
2017-02-09T03:35:25.912Z,1.29
2017-02-09T03:35:47.640Z,1.29
2017-02-09T03:36:09.369Z,1.27
2017-02-09T03:36:31.065Z,1.19
2017-02-09T03:36:52.771Z,1.15
2017-02-09T03:37:14.481Z,1.18
2017-02-09T03:37:36.176Z,1.17
2017-02-09T03:37:57.884Z,1.18
2017-02-09T03:38:19.582Z,1.18
2017-02-09T03:38:41.290Z,1.21
2017-02-09T03:39:02.995Z,1.22
2017-02-09T03:39:34.256Z,1.18
2017-02-09T03:39:55.954Z,1.23
2017-02-09T03:40:17.648Z,1.14
2017-02-09T03:40:44.123Z,1.06
2017-02-09T03:41:05.827Z,1.04
2017-02-09T03:41:27.558Z,1.10
2017-02-09T03:41:54.035Z,1.07
2017-02-09T03:42:15.722Z,1.00
2017-02-09T03:42:37.423Z,1.04
2017-02-09T03:43:13.456Z,1.08
2017-02-09T03:43:40.481Z,1.08
2017-02-09T03:44:02.198Z,1.12
2017-02-09T03:44:23.897Z,1.12
2017-02-09T03:44:55.152Z,1.06
2017-02-09T03:45:16.859Z,1.05
2017-02-09T03:45:38.559Z,1.02
2017-02-09T03:46:05.035Z,1.01
2017-02-09T03:46:26.758Z,1.06
2017-02-09T03:46:48.456Z,1.10
2017-02-09T03:47:19.718Z,1.19
2017-02-09T03:47:41.424Z,1.20
2017-02-09T03:48:03.127Z,1.18
2017-02-09T03:48:24.823Z,1.17
2017-02-09T03:48:46.528Z,1.17
2017-02-09T03:49:08.237Z,1.13
2017-02-09T03:49:34.720Z,1.06
2017-02-09T03:49:56.419Z,1.05
2017-02-09T03:50:22.892Z,1.09
2017-02-09T03:50:44.592Z,1.08
2017-02-09T03:51:11.068Z,1.07
2017-02-09T03:51:32.792Z,1.09
2017-02-09T03:51:54.504Z,1.10
2017-02-09T03:52:16.205Z,1.12
2017-02-09T03:52:37.907Z,1.09
2017-02-09T03:53:04.390Z,1.00
2017-02-09T03:53:26.093Z,0.97
2017-02-09T03:53:47.795Z,0.92
2017-02-09T03:54:09.499Z,0.93
2017-02-09T03:54:31.197Z,0.91
2017-02-09T03:54:52.895Z,0.96
2017-02-09T03:55:24.152Z,0.99
2017-02-09T03:55:45.844Z,1.03
2017-02-09T03:56:12.319Z,1.02
2017-02-09T03:56:34.045Z,1.07
2017-02-09T03:56:55.745Z,0.99
2017-02-09T03:57:17.456Z,1.00
2017-02-09T03:57:39.145Z,0.97
2017-02-09T03:58:00.852Z,0.92
2017-02-09T03:58:22.558Z,0.87
2017-02-09T03:58:44.253Z,0.84
2017-02-09T03:59:05.950Z,0.84
2017-02-09T03:59:27.656Z,0.90
2017-02-09T03:59:49.350Z,0.91
2017-02-09T04:00:20.611Z,1.00
2017-02-09T04:00:42.310Z,1.03
2017-02-09T04:01:04.016Z,1.03
2017-02-09T04:01:25.722Z,1.01
2017-02-09T04:01:47.437Z,1.02
2017-02-09T04:02:13.910Z,0.96
2017-02-09T04:02:35.611Z,0.99
2017-02-09T04:02:57.326Z,0.93
2017-02-09T04:03:23.887Z,0.91
2017-02-09T04:03:45.573Z,0.97
2017-02-09T04:04:12.053Z,0.98
2017-02-09T04:04:33.761Z,1.08
2017-02-09T04:04:55.452Z,1.04
2017-02-09T04:05:21.940Z,1.03
2017-02-09T04:06:10.121Z,1.08
2017-02-09T04:06:31.813Z,1.08
2017-02-09T04:06:53.535Z,1.03
2017-02-09T04:07:56.052Z,1.03
2017-02-09T04:08:17.789Z,0.95
2017-02-09T04:08:39.490Z,0.93
2017-02-09T04:09:05.961Z,0.92
2017-02-09T04:09:27.665Z,0.98
2017-02-09T04:09:54.176Z,1.01
2017-02-09T04:10:15.867Z,1.00
2017-02-09T04:10:37.569Z,0.95
2017-02-09T04:11:04.045Z,0.88
2017-02-09T04:11:25.738Z,0.93
2017-02-09T04:11:56.986Z,0.95
2017-02-09T04:12:18.685Z,0.93
2017-02-09T04:12:49.954Z,0.94
2017-02-09T04:13:11.648Z,0.91
2017-02-09T04:13:33.374Z,0.91
2017-02-09T04:13:55.072Z,0.93
2017-02-09T04:14:16.772Z,0.90
2017-02-09T04:14:52.803Z,0.86
2017-02-09T04:15:15.083Z,0.88
2017-02-09T04:15:36.860Z,0.89
2017-02-09T04:15:58.599Z,0.89
2017-02-09T04:16:34.628Z,0.83
2017-02-09T04:17:01.666Z,0.81
2017-02-09T04:17:23.359Z,0.87
2017-02-09T04:17:45.058Z,0.84
2017-02-09T04:18:11.551Z,0.82
2017-02-09T04:18:33.253Z,0.80
2017-02-09T04:18:54.960Z,0.80
2017-02-09T04:19:21.433Z,0.75
2017-02-09T04:19:43.228Z,0.79
2017-02-09T04:20:09.704Z,0.78
2017-02-09T04:20:31.424Z,0.79
2017-02-09T04:20:57.925Z,0.88
2017-02-09T04:21:19.626Z,0.87
2017-02-09T04:21:41.327Z,0.90
2017-02-09T04:22:07.817Z,0.90
2017-02-09T04:22:29.527Z,0.92
2017-02-09T04:22:51.318Z,0.93
2017-02-09T04:23:22.592Z,0.98
2017-02-09T04:23:44.297Z,0.99
2017-02-09T04:24:06.095Z,0.93
2017-02-09T04:24:32.575Z,0.90
2017-02-09T04:24:54.270Z,0.84
2017-02-09T04:25:25.528Z,0.83
2017-02-09T04:25:47.235Z,0.81
2017-02-09T04:26:08.975Z,0.80
2017-02-09T04:26:35.465Z,0.83
2017-02-09T04:26:57.170Z,0.84
2017-02-09T04:27:18.881Z,0.89
2017-02-09T04:27:40.580Z,0.91
2017-02-09T04:28:02.288Z,0.89
2017-02-09T04:28:23.980Z,0.88
2017-02-09T04:28:50.458Z,0.88
2017-02-09T04:29:12.169Z,0.90
2017-02-09T04:29:33.989Z,0.90
2017-02-09T04:30:10.029Z,0.84
2017-02-09T04:30:32.333Z,0.86
2017-02-09T04:30:54.072Z,0.87
2017-02-09T04:31:15.800Z,0.88
2017-02-09T04:31:37.509Z,0.88
2017-02-09T04:31:59.216Z,0.93
2017-02-09T04:32:20.925Z,0.95
2017-02-09T04:32:47.428Z,0.95
2017-02-09T04:33:09.123Z,0.94
2017-02-09T04:33:40.378Z,0.90
2017-02-09T04:34:02.093Z,0.88
2017-02-09T04:34:33.340Z,0.89
2017-02-09T04:34:55.034Z,0.89
2017-02-09T04:35:21.527Z,0.86
2017-02-09T04:35:43.241Z,0.83
2017-02-09T04:36:14.495Z,0.85
2017-02-09T04:36:36.283Z,0.86
2017-02-09T04:36:57.986Z,0.86
2017-02-09T04:37:19.706Z,0.92
2017-02-09T04:37:41.392Z,0.89
2017-02-09T04:38:07.858Z,0.89
2017-02-09T04:38:29.563Z,0.90
2017-02-09T04:38:51.286Z,0.86
2017-02-09T04:39:17.767Z,0.84
2017-02-09T04:39:39.460Z,0.83
2017-02-09T04:40:01.173Z,0.79
2017-02-09T04:40:27.651Z,0.77
2017-02-09T04:40:49.359Z,0.78
2017-02-09T04:41:11.222Z,0.78
2017-02-09T04:41:32.919Z,0.79
2017-02-09T04:41:54.616Z,0.76
2017-02-09T04:42:16.315Z,0.81
2017-02-09T04:42:38.113Z,0.80
2017-02-09T04:42:59.826Z,0.77
2017-02-09T04:43:21.537Z,0.78
2017-02-09T04:43:57.569Z,0.85
2017-02-09T04:44:24.733Z,0.77
2017-02-09T04:44:46.441Z,0.79
2017-02-09T04:45:08.149Z,0.79
2017-02-09T04:45:29.949Z,0.74
2017-02-09T04:45:51.645Z,0.72
2017-02-09T04:46:13.375Z,0.72
2017-02-09T04:46:44.641Z,0.76
2017-02-09T04:47:06.425Z,0.76
2017-02-09T04:47:28.134Z,0.71
2017-02-09T04:47:49.863Z,0.73
2017-02-09T04:48:11.565Z,0.70
2017-02-09T04:48:33.253Z,0.75
2017-02-09T04:48:54.959Z,0.81
2017-02-09T04:49:16.685Z,0.79
2017-02-09T04:49:38.390Z,0.79
2017-02-09T04:50:04.864Z,0.77
2017-02-09T04:50:26.560Z,0.77
2017-02-09T04:50:48.259Z,0.77
2017-02-09T04:51:10.070Z,0.79
2017-02-09T04:51:31.779Z,0.84
2017-02-09T04:51:53.483Z,0.93
2017-02-09T04:52:29.527Z,0.91
2017-02-09T04:52:51.799Z,0.91
2017-02-09T04:53:13.512Z,0.98
2017-02-09T04:53:35.231Z,0.97
2017-02-09T04:53:56.934Z,0.88
2017-02-09T04:54:18.644Z,0.88
2017-02-09T04:54:40.357Z,0.88
2017-02-09T04:55:06.880Z,0.86
2017-02-09T04:55:28.584Z,0.84
2017-02-09T04:55:55.063Z,0.77
2017-02-09T04:56:16.883Z,0.74
2017-02-09T04:56:38.594Z,0.72
2017-02-09T04:57:00.304Z,0.70
2017-02-09T04:57:22.006Z,0.71
2017-02-09T04:57:48.483Z,0.69
2017-02-09T04:58:10.329Z,0.70
2017-02-09T04:58:36.806Z,0.71
2017-02-09T04:58:58.509Z,0.72
2017-02-09T04:59:20.219Z,0.71
2017-02-09T04:59:46.693Z,0.71
2017-02-09T05:00:08.390Z,0.68
2017-02-09T05:00:30.104Z,0.69
2017-02-09T05:01:01.351Z,0.69
2017-02-09T05:01:23.112Z,0.79
2017-02-09T05:01:54.381Z,0.77
2017-02-09T05:02:16.175Z,0.75
2017-02-09T05:02:38.960Z,0.68
2017-02-09T05:03:00.672Z,0.66
2017-02-09T05:03:22.390Z,0.72
2017-02-09T05:03:53.642Z,0.73
2017-02-09T05:04:15.350Z,0.72
2017-02-09T05:04:37.045Z,0.70
2017-02-09T05:05:08.293Z,0.69
2017-02-09T05:05:30.111Z,0.68
2017-02-09T05:05:56.584Z,0.68
2017-02-09T05:06:18.285Z,0.75
2017-02-09T05:06:44.814Z,0.76
2017-02-09T05:07:06.512Z,0.77
2017-02-09T05:07:42.546Z,0.69
2017-02-09T05:08:09.599Z,0.68
2017-02-09T05:08:31.291Z,0.69
2017-02-09T05:08:53.024Z,0.69
2017-02-09T05:09:24.273Z,0.69
2017-02-09T05:09:46.091Z,0.73
2017-02-09T05:10:07.790Z,0.71
2017-02-09T05:10:29.501Z,0.81
2017-02-09T05:10:51.207Z,0.82
2017-02-09T05:11:12.918Z,0.88
2017-02-09T05:11:39.396Z,0.83
2017-02-09T05:12:01.106Z,0.79
2017-02-09T05:12:32.351Z,0.74
2017-02-09T05:12:54.058Z,0.67
2017-02-09T05:13:20.539Z,0.64
2017-02-09T05:13:42.250Z,0.66
2017-02-09T05:14:04.069Z,0.67
2017-02-09T05:15:11.346Z,0.58
2017-02-09T05:15:33.149Z,0.59
2017-02-09T05:16:09.174Z,0.64
2017-02-09T05:16:36.192Z,0.67
2017-02-09T05:16:57.896Z,0.66
2017-02-09T05:17:19.604Z,0.62
2017-02-09T05:17:50.875Z,0.58
2017-02-09T05:18:12.574Z,0.56
2017-02-09T05:18:34.279Z,0.56
2017-02-09T05:19:00.775Z,0.53
2017-02-09T05:19:22.489Z,0.58
2017-02-09T05:19:44.288Z,0.61
2017-02-09T05:20:10.771Z,0.59
2017-02-09T05:20:32.465Z,0.59
2017-02-09T05:20:58.954Z,0.50
2017-02-09T05:21:20.651Z,0.56
2017-02-09T05:21:42.464Z,0.61
2017-02-09T05:22:08.940Z,0.60
2017-02-09T05:22:30.745Z,0.60
2017-02-09T05:22:57.239Z,0.60
2017-02-09T05:23:19.051Z,0.59
2017-02-09T05:23:50.331Z,0.59
2017-02-09T05:24:12.057Z,0.62
2017-02-09T05:24:38.546Z,0.65
2017-02-09T05:25:00.240Z,0.61
2017-02-09T05:25:26.723Z,0.65
2017-02-09T05:25:48.413Z,0.64
2017-02-09T05:26:14.899Z,0.60
2017-02-09T05:26:36.601Z,0.61
2017-02-09T05:27:03.086Z,0.64
2017-02-09T05:27:24.779Z,0.65
2017-02-09T05:27:51.342Z,0.59
2017-02-09T05:28:58.715Z,0.67